createdAt,value
2022-07-25T00:00:26.945Z,99.90
2022-07-25T00:02:53.754Z,99.90
2022-07-25T00:05:20.845Z,99.90
2022-07-25T00:10:15.406Z,99.90
2022-07-25T00:15:10.004Z,99.90
2022-07-25T00:17:37.114Z,99.90
2022-07-25T00:20:05.274Z,99.90
2022-07-25T00:22:32.115Z,99.90
2022-07-25T00:24:58.998Z,99.90
2022-07-25T00:27:25.909Z,99.90
2022-07-25T00:29:52.800Z,99.90
2022-07-25T00:32:19.716Z,99.90
2022-07-25T00:34:46.576Z,99.90
2022-07-25T00:37:13.379Z,99.90
2022-07-25T00:39:40.172Z,99.90
2022-07-25T00:42:07.142Z,99.90
2022-07-25T00:44:34.381Z,99.90
2022-07-25T01:09:11.782Z,99.90
2022-07-25T04:58:15.865Z,99.90
2022-07-25T05:30:12.455Z,99.90
2022-07-25T05:32:40.569Z,99.90
2022-07-25T05:35:08.287Z,99.90
2022-07-25T05:37:36.289Z,99.90
2022-07-25T05:42:34.350Z,99.90
2022-07-25T05:47:28.559Z,99.90
2022-07-25T05:59:44.773Z,99.90
2022-07-25T06:02:11.763Z,99.90
2022-07-25T06:07:05.831Z,99.90
2022-07-25T06:21:52.407Z,99.90
2022-07-25T06:24:19.269Z,99.90
2022-07-25T06:26:46.121Z,99.90
2022-07-25T06:29:12.987Z,99.90
2022-07-25T06:31:40.047Z,99.90
2022-07-25T06:34:07.720Z,99.90
2022-07-25T07:01:12.376Z,99.90
2022-07-25T07:06:09.417Z,99.90
2022-07-25T07:08:36.481Z,99.90
2022-07-25T07:11:03.781Z,99.90
2022-07-25T07:13:30.656Z,99.90
2022-07-25T07:15:57.784Z,99.90
2022-07-25T07:18:24.741Z,99.90
2022-07-25T07:23:19.485Z,99.90
2022-07-25T07:25:47.194Z,99.90
2022-07-25T07:28:15.690Z,99.90
2022-07-25T07:35:57.145Z,99.80
2022-07-25T07:38:24.845Z,99.90
2022-07-25T07:40:52.132Z,99.90
2022-07-25T07:43:19.544Z,99.70
2022-07-25T07:45:46.434Z,99.90
2022-07-25T07:48:13.293Z,98.30
2022-07-25T07:50:41.010Z,96.20
2022-07-25T07:53:07.947Z,94.20
2022-07-25T07:55:48.854Z,94.60
2022-07-25T07:58:18.959Z,94.10
2022-07-25T08:00:48.942Z,92.30
2022-07-25T08:03:20.966Z,92.30
2022-07-25T08:05:49.130Z,92.20
2022-07-25T08:08:16.485Z,90.80
2022-07-25T08:10:45.761Z,91.10
2022-07-25T08:13:34.216Z,90.70
2022-07-25T08:16:03.679Z,90.80
2022-07-25T08:18:34.982Z,89.70
2022-07-25T08:21:06.483Z,90.10
2022-07-25T08:23:38.929Z,89.50
2022-07-25T08:26:06.830Z,89.60
2022-07-25T08:28:33.666Z,84.50
2022-07-25T08:31:00.852Z,83.80
2022-07-25T08:33:28.871Z,83.10
2022-07-25T08:35:56.283Z,81.50
2022-07-25T08:38:25.663Z,81.40
2022-07-25T08:40:54.799Z,82.00
2022-07-25T08:43:22.055Z,80.90
2022-07-25T08:48:19.609Z,78.20
2022-07-25T08:50:48.362Z,78.30
2022-07-25T08:53:35.433Z,78.60
2022-07-25T08:56:13.327Z,76.00
2022-07-25T08:58:41.925Z,76.90
2022-07-25T09:01:11.479Z,76.50
2022-07-25T09:03:38.734Z,75.60
2022-07-25T09:06:20.630Z,73.50
2022-07-25T09:08:59.039Z,71.80
2022-07-25T09:11:27.675Z,72.20
2022-07-25T09:14:07.359Z,73.00
2022-07-25T09:16:39.973Z,70.50
2022-07-25T09:19:14.552Z,72.60
2022-07-25T09:21:43.083Z,70.70
2022-07-25T09:24:16.054Z,71.90
2022-07-25T09:29:17.392Z,72.10
2022-07-25T09:31:44.377Z,71.40
2022-07-25T09:34:12.730Z,69.50
2022-07-25T09:36:52.250Z,67.80
2022-07-25T09:39:19.092Z,69.70
2022-07-25T09:41:45.899Z,70.80
2022-07-25T09:44:16.915Z,67.70
2022-07-25T09:46:43.831Z,79.70
2022-07-25T09:51:42.706Z,66.60
2022-07-25T09:54:10.272Z,65.20
2022-07-25T09:56:37.265Z,64.60
2022-07-25T09:59:05.582Z,63.20
2022-07-25T10:01:41.554Z,62.90
2022-07-25T10:04:38.477Z,62.30
2022-07-25T10:07:16.145Z,64.30
2022-07-25T10:09:49.347Z,64.80
2022-07-25T10:12:21.258Z,65.50
2022-07-25T10:15:13.247Z,64.60
2022-07-25T10:17:41.602Z,63.90
2022-07-25T10:20:10.249Z,62.10
2022-07-25T10:22:58.046Z,62.80
2022-07-25T10:25:25.522Z,62.90
2022-07-25T10:28:01.205Z,62.50
2022-07-25T10:30:38.896Z,62.70
2022-07-25T10:33:15.952Z,63.40
2022-07-25T10:35:42.831Z,62.50
2022-07-25T10:38:10.495Z,61.20
2022-07-25T10:40:43.290Z,63.40
2022-07-25T10:43:15.307Z,61.50
2022-07-25T10:45:48.378Z,61.20
2022-07-25T10:48:28.941Z,61.60
2022-07-25T10:51:12.152Z,62.00
2022-07-25T10:53:47.495Z,62.20
2022-07-25T10:56:26.563Z,62.30
2022-07-25T10:59:01.745Z,62.00
2022-07-25T11:01:33.564Z,63.40
2022-07-25T11:04:03.722Z,61.70
2022-07-25T11:06:39.026Z,62.30
2022-07-25T11:09:23.812Z,62.70
2022-07-25T11:11:58.792Z,62.00
2022-07-25T11:14:33.877Z,63.10
2022-07-25T11:17:14.885Z,63.50
2022-07-25T11:19:53.825Z,64.90
2022-07-25T11:22:20.710Z,64.30
2022-07-25T11:24:47.821Z,62.90
2022-07-25T11:27:23.994Z,63.90
2022-07-25T11:29:51.552Z,65.10
2022-07-25T11:32:18.636Z,64.50
2022-07-25T11:34:52.932Z,66.20
2022-07-25T11:37:21.072Z,65.40
2022-07-25T11:39:48.895Z,64.90
2022-07-25T11:42:18.742Z,65.00
2022-07-25T11:44:48.949Z,63.90
2022-07-25T11:47:26.470Z,62.60
2022-07-25T11:49:54.694Z,61.40
2022-07-25T11:52:23.415Z,62.10
2022-07-25T11:54:59.055Z,61.60
2022-07-25T11:57:28.148Z,58.90
2022-07-25T11:59:56.118Z,58.70
2022-07-25T12:02:25.586Z,59.90
2022-07-25T12:05:05.786Z,57.40
2022-07-25T12:07:53.197Z,64.50
2022-07-25T12:10:23.579Z,57.50
2022-07-25T12:12:52.725Z,57.50
2022-07-25T12:15:31.254Z,57.00
2022-07-25T12:17:59.028Z,57.40
2022-07-25T12:20:31.332Z,55.90
2022-07-25T12:23:01.918Z,55.80
2022-07-25T12:25:31.186Z,55.80
2022-07-25T12:27:59.163Z,55.80
2022-07-25T12:30:28.224Z,55.60
2022-07-25T12:32:56.569Z,55.30
2022-07-25T12:35:24.062Z,55.30
2022-07-25T12:37:51.534Z,55.60
2022-07-25T12:40:19.750Z,55.60
2022-07-25T12:42:47.430Z,55.20
2022-07-25T12:45:15.681Z,55.20
2022-07-25T12:47:45.212Z,54.50
2022-07-25T12:50:13.677Z,54.90
2022-07-25T12:52:41.679Z,55.40
2022-07-25T12:55:11.657Z,55.70
2022-07-25T12:57:39.220Z,55.90
2022-07-25T13:00:09.325Z,56.70
2022-07-25T13:02:36.260Z,56.40
2022-07-25T13:05:03.494Z,56.50
2022-07-25T13:07:30.517Z,56.80
2022-07-25T13:09:57.278Z,57.20
2022-07-25T13:12:26.535Z,58.10
2022-07-25T13:14:53.346Z,58.30
2022-07-25T13:17:24.945Z,58.20
2022-07-25T13:19:54.795Z,58.80
2022-07-25T13:22:24.398Z,59.10
2022-07-25T13:24:51.561Z,59.10
2022-07-25T13:27:19.770Z,58.90
2022-07-25T13:29:47.131Z,59.20
2022-07-25T13:32:14.179Z,58.90
2022-07-25T13:34:41.103Z,59.00
2022-07-25T13:37:07.997Z,59.00
2022-07-25T13:39:35.845Z,59.50
2022-07-25T13:42:03.457Z,59.30
2022-07-25T13:44:30.404Z,59.80
2022-07-25T13:46:58.679Z,60.10
2022-07-25T13:49:25.918Z,59.40
2022-07-25T13:51:53.204Z,59.90
2022-07-25T13:54:20.113Z,60.60
2022-07-25T13:56:47.590Z,60.70
2022-07-25T13:59:20.466Z,60.40
2022-07-25T14:01:51.139Z,59.70
2022-07-25T14:04:18.312Z,61.50
2022-07-25T14:06:45.560Z,61.20
2022-07-25T14:09:12.348Z,61.40
2022-07-25T14:11:39.147Z,61.90
2022-07-25T14:14:06.229Z,62.10
2022-07-25T14:16:34.041Z,61.30
2022-07-25T14:19:02.180Z,60.50
2022-07-25T14:21:29.671Z,60.90
2022-07-25T14:23:56.508Z,61.30
2022-07-25T14:26:23.924Z,61.50
2022-07-25T14:28:50.762Z,61.80
2022-07-25T14:31:17.835Z,61.20
2022-07-25T14:33:44.674Z,66.10
2022-07-25T14:36:11.568Z,70.00
2022-07-25T14:38:38.514Z,72.30
2022-07-25T14:41:10.731Z,74.00
2022-07-25T14:43:40.132Z,75.70
2022-07-25T14:46:08.261Z,77.10
2022-07-25T14:48:38.573Z,78.00
2022-07-25T14:51:06.446Z,79.00
2022-07-25T14:53:36.313Z,78.90
2022-07-25T14:56:06.787Z,78.90
2022-07-25T14:58:33.782Z,82.90
2022-07-25T15:01:01.150Z,81.40
2022-07-25T15:03:28.105Z,87.10
2022-07-25T15:05:54.956Z,91.90
2022-07-25T15:08:22.205Z,88.80
2022-07-25T15:10:49.071Z,88.70
2022-07-25T15:13:32.207Z,90.10
2022-07-25T15:16:00.049Z,90.80
2022-07-25T15:18:27.091Z,91.20
2022-07-25T15:20:56.107Z,92.20
2022-07-25T15:23:25.299Z,92.50
2022-07-25T15:26:03.161Z,93.70
2022-07-25T15:28:32.431Z,96.80
2022-07-25T15:30:59.299Z,97.00
2022-07-25T15:33:26.401Z,99.90
2022-07-25T15:38:20.754Z,99.90
2022-07-25T15:40:48.071Z,99.90
2022-07-25T15:43:16.889Z,99.90
2022-07-25T15:45:46.165Z,99.90
2022-07-25T15:48:14.483Z,99.90
2022-07-25T15:55:40.012Z,99.90
2022-07-25T15:58:10.112Z,99.90
2022-07-25T16:03:05.666Z,99.90
2022-07-25T16:05:32.627Z,99.90
2022-07-25T16:08:01.041Z,99.90
2022-07-25T16:10:29.117Z,99.90
2022-07-25T16:12:56.005Z,99.90
2022-07-25T16:15:23.274Z,99.90
2022-07-25T16:17:53.040Z,99.90
2022-07-25T16:20:20.318Z,99.90
2022-07-25T16:22:48.929Z,99.90
2022-07-25T16:25:15.832Z,99.90
2022-07-25T16:27:42.592Z,99.90
2022-07-25T16:30:09.813Z,99.90
2022-07-25T16:32:36.587Z,99.90
2022-07-25T16:35:03.442Z,99.90
2022-07-25T16:37:30.267Z,99.90
2022-07-25T16:39:57.036Z,99.90
2022-07-25T16:42:23.716Z,99.90
2022-07-25T16:44:50.523Z,99.90
2022-07-25T16:47:17.266Z,99.90
2022-07-25T16:49:44.123Z,99.90
2022-07-25T16:52:10.923Z,99.90
2022-07-25T16:54:37.873Z,99.90
2022-07-25T16:57:04.614Z,99.90
2022-07-25T16:59:31.447Z,99.90
2022-07-25T17:01:58.293Z,99.90
2022-07-25T17:04:25.247Z,99.90
2022-07-25T17:06:52.146Z,99.90
2022-07-25T17:09:18.954Z,99.90
2022-07-25T17:11:45.723Z,99.90
2022-07-25T17:14:12.591Z,99.90
2022-07-25T17:16:41.366Z,99.90
2022-07-25T17:19:08.744Z,99.90
2022-07-25T17:21:35.867Z,99.90
2022-07-25T17:24:03.073Z,99.90
2022-07-25T17:26:30.164Z,99.90
2022-07-25T17:28:56.977Z,99.90
2022-07-25T17:31:24.939Z,99.90
2022-07-25T17:33:51.906Z,99.90
2022-07-25T17:36:19.341Z,99.90
2022-07-25T17:38:46.185Z,99.90
2022-07-25T17:41:13.057Z,99.90
2022-07-25T17:43:40.510Z,99.90
2022-07-25T17:46:07.511Z,99.90
2022-07-25T17:48:34.833Z,99.90
2022-07-25T17:51:01.734Z,99.90
2022-07-25T18:10:44.090Z,99.90
2022-07-25T18:13:11.196Z,99.90
2022-07-25T18:15:38.068Z,99.90
2022-07-25T18:27:58.820Z,99.90
2022-07-25T18:30:29.093Z,99.90
2022-07-25T18:32:56.470Z,99.90
2022-07-25T18:35:23.838Z,99.90
2022-07-25T18:37:50.705Z,99.90
2022-07-25T18:40:19.588Z,99.90
2022-07-25T18:42:46.702Z,99.90
2022-07-25T18:45:14.360Z,99.90
2022-07-25T18:47:41.337Z,99.90
2022-07-25T18:50:08.700Z,99.90
2022-07-25T18:52:36.200Z,99.90
2022-07-25T18:55:05.388Z,99.90
2022-07-25T19:04:57.934Z,99.90
2022-07-25T19:07:26.019Z,99.90
2022-07-25T19:09:52.865Z,99.90
2022-07-25T19:12:19.690Z,99.90
2022-07-25T19:19:41.368Z,99.90
2022-07-25T19:22:08.299Z,99.90
2022-07-25T19:24:35.180Z,99.90
2022-07-25T19:27:04.547Z,99.90
2022-07-25T19:29:31.740Z,99.90
2022-07-25T19:31:58.711Z,99.90
2022-07-25T19:34:25.680Z,99.90
2022-07-25T19:36:52.800Z,99.90
2022-07-25T19:39:19.744Z,99.90
2022-07-25T19:41:48.458Z,99.90
2022-07-25T19:44:15.409Z,99.90
2022-07-25T19:46:42.314Z,99.90
2022-07-25T19:49:09.329Z,99.90
2022-07-25T19:51:36.235Z,99.90
2022-07-25T19:54:04.151Z,99.90
2022-07-25T20:13:46.428Z,99.90
2022-07-25T20:21:08.013Z,99.90
2022-07-25T20:23:34.824Z,99.90
2022-07-25T20:26:02.491Z,99.90
2022-07-25T20:28:29.352Z,99.90
2022-07-25T20:30:56.596Z,99.90
2022-07-25T20:33:27.067Z,99.90
2022-07-25T20:35:57.834Z,99.90
2022-07-25T20:43:24.266Z,99.90
2022-07-25T20:45:51.178Z,99.90
2022-07-25T20:48:18.145Z,99.90
2022-07-25T20:50:45.043Z,99.90
2022-07-25T20:53:12.315Z,99.90
2022-07-25T21:03:01.629Z,99.90
2022-07-25T21:07:56.189Z,99.90
2022-07-25T21:10:23.521Z,99.90
2022-07-25T21:17:45.017Z,99.90
2022-07-25T23:48:29.552Z,99.90
2022-07-25T23:50:56.808Z,99.90
2022-07-25T23:53:23.750Z,99.90
2022-07-25T23:55:50.686Z,99.90
